Weather reports worldwide

Advertisment
Leuchtturm Kiel, Germany (10044): temperature & dewpoint: 14.01.2021 13:00:00 - 20.01.2021 13:00:00 (CET)Leuchtturm Kiel, Germany (10044): water temperature: 14.01.2021 13:00:00 - 20.01.2021 13:00:00 (CET)Leuchtturm Kiel, Germany (10044): wind speed & gusts: 14.01.2021 13:00:00 - 20.01.2021 13:00:00 (CET)Leuchtturm Kiel, Germany (10044): wind direction: 14.01.2021 13:00:00 - 20.01.2021 13:00:00 (CET)Leuchtturm Kiel, Germany (10044): reduced air pressure: 14.01.2021 13:00:00 - 20.01.2021 13:00:00 (CET)Leuchtturm Kiel, Germany (10044): sunshine duration: 14.01.2021 13:00:00 - 20.01.2021 13:00:00 (CET)
Date & Time tt [°C] td [°C] tw [°C] ff [km/h] ff [kn] fx [km/h] fx [kn] dd ppp [hPa] sd [min]
20.01.2021 13:00:00 5,9 5,5 4,0 50 27 56 31 SSW 994,3 0
20.01.2021 12:00:00 6,0 5,0 4,0 48 26 59 32 SSW 994,6 0
20.01.2021 11:00:00 6,1 4,9 3,9 49 26 67 36 SSW 995,1 0
20.01.2021 10:00:00 6,4 4,4 3,8 53 29 66 35 SSW 994,9 0
20.01.2021 09:00:00 6,1 4,3 3,8 53 29 67 36 SSW 995,1 0
20.01.2021 08:00:00 5,8 4,5 3,8 51 27 64 34 SSW 995,3 0
20.01.2021 07:00:00 5,6 5,2 3,9 54 29 67 36 SSW 995,4 0
20.01.2021 06:00:00 5,5 5,1 3,9 49 27 63 34 SSW 995,8 0
20.01.2021 05:00:00 6,1 5,4 3,9 52 28 64 35 SSW 996,3 0
20.01.2021 04:00:00 7,1 5,6 4,0 48 26 59 32 SW 996,8 0
20.01.2021 03:00:00 7,6 6,0 4,0 47 26 56 30 SW 996,9 0
20.01.2021 02:00:00 7,9 5,9 3,9 47 25 65 35 WSW 997,3 0
20.01.2021 01:00:00 7,9 6,5 3,9 52 28 67 36 WSW 997,3 0
20.01.2021 00:00:00 7,4 6,6 3,9 48 26 57 31 WSW 997,6 0
19.01.2021 23:00:00 6,7 6,3 3,9 32 18 39 21 SW 998,1 0
19.01.2021 22:00:00 6,0 5,6 3,9 27 15 33 18 SSW 998,6 0
19.01.2021 21:00:00 5,5 5,2 3,9 26 14 31 17 SW 998,7 0
19.01.2021 20:00:00 5,6 5,3 3,9 28 15 31 17 SW 998,7 0
19.01.2021 19:00:00 5,2 4,9 3,9 24 13 30 16 SW 998,7 0
19.01.2021 18:00:00 4,7 4,3 3,9 27 15 30 16 SSW 998,6 0
19.01.2021 17:00:00 3,9 3,5 3,8 26 14 29 16 S 998,9 0
19.01.2021 16:00:00 3,3 2,8 3,8 27 15 39 21 S 998,8 0
19.01.2021 15:00:00 2,8 2,1 3,9 34 19 45 25 S 998,6 0
19.01.2021 14:00:00 2,4 1,5 3,9 38 20 49 26 S 999,0 0
19.01.2021 13:00:00 2,1 0,9 3,9 41 22 52 28 SSW 999,8 0
19.01.2021 12:00:00 1,6 0,7 3,9 41 22 53 29 S 1000,7 0
19.01.2021 11:00:00 1,5 0,5 3,9 41 22 53 29 SSW 1001,7 0
19.01.2021 10:00:00 1,6 0,6 3,9 45 24 53 29 S 1002,7 0
19.01.2021 09:00:00 1,6 0,7 3,9 40 22 55 30 S 1004,0 0
19.01.2021 08:00:00 3,3 2,0 3,9 44 24 51 28 SSW 1005,1 0
19.01.2021 07:00:00 3,8 2,3 3,9 32 17 44 24 SSW 1005,9 0
19.01.2021 06:00:00 3,8 2,2 3,9 40 22 48 26 SSW 1007,3 0
19.01.2021 05:00:00 4,3 2,2 3,9 42 23 51 27 SW 1008,3 0
19.01.2021 04:00:00 4,5 2,3 3,9 41 22 50 27 SW 1009,0 0
19.01.2021 03:00:00 4,4 2,8 3,9 36 20 54 29 SW 1009,7 0
19.01.2021 02:00:00 4,1 2,4 3,9 40 22 48 26 SW 1010,3 0
19.01.2021 01:00:00 3,6 2,2 3,9 34 18 51 28 WSW 1010,9 0
19.01.2021 00:00:00 3,6 2,2 3,9 34 18 39 21 SW 1011,2 0
18.01.2021 23:00:00 4,2 2,7 3,9 36 19 43 23 WSW 1011,3 0
18.01.2021 22:00:00 4,3 3,2 3,9 33 18 44 24 WSW 1011,5 0
18.01.2021 21:00:00 4,4 2,9 3,9 31 17 39 21 SW 1011,6 0
18.01.2021 20:00:00 4,5 3,1 3,8 37 20 44 24 WSW 1011,5 0
18.01.2021 19:00:00 4,7 3,2 3,8 36 19 45 24 WSW 1011,6 0
18.01.2021 18:00:00 4,3 3,2 3,8 35 19 42 23 SW 1011,6 0
18.01.2021 17:00:00 4,2 3,0 3,8 37 20 53 28 WSW 1011,6 0
18.01.2021 16:00:00 4,1 2,8 3,8 41 22 49 26 SW 1012,0 0
18.01.2021 15:00:00 3,5 2,6 3,8 35 19 42 23 SW 1012,4 0
18.01.2021 14:00:00 2,7 1,8 3,8 36 19 42 23 SSW 1013,0 0
18.01.2021 13:00:00 2,5 1,3 3,8 37 20 45 24 SSW 1014,2 0
18.01.2021 12:00:00 2,5 1,8 3,8 37 20 43 23 SW 1015,1 0
18.01.2021 11:00:00 1,9 1,4 3,8 36 20 43 23 SSW 1015,9 0
18.01.2021 10:00:00 2,0 1,4 3,8 37 20 41 22 SSW 1016,1 0
18.01.2021 09:00:00 1,0 0,5 3,8 36 20 41 22 SW 1016,7 0
18.01.2021 08:00:00 0,5 0,0 3,8 23 13 34 18 SSW 1017,0 0
18.01.2021 07:00:00 0,2 -0,3 3,8 22 12 38 20 SSW 1016,8 0
18.01.2021 06:00:00 -0,1 -0,8 3,8 30 16 35 19 SW 1017,3 0
18.01.2021 05:00:00 -0,4 -1,4 3,8 26 14 31 17 SSW 1017,8 0
18.01.2021 04:00:00 -0,8 -2,6 3,8 25 13 30 16 SSW 1018,1 0
18.01.2021 03:00:00 -0,7 -3,0 3,8 26 14 32 17 SSW 1018,2 0
18.01.2021 02:00:00 -0,7 -3,1 3,8 24 13 31 17 SSW 1018,7 0
18.01.2021 01:00:00 -1,0 -3,8 3,8 26 14 32 18 SSW 1019,0 0
18.01.2021 00:00:00 -0,9 -4,0 3,8 26 14 32 17 SSW 1019,5 0
17.01.2021 23:00:00 -0,8 -4,5 3,8 24 13 32 18 SSW 1019,7 0
17.01.2021 22:00:00 -0,8 -4,8 3,8 29 16 36 19 S 1019,7 0
17.01.2021 21:00:00 -0,9 -4,7 3,8 29 15 40 22 S 1020,1 0
17.01.2021 20:00:00 -0,7 -5,0 3,8 31 17 35 19 S 1020,2 0
17.01.2021 19:00:00 -0,4 -4,5 3,8 25 14 32 17 SSE 1020,1 0
17.01.2021 18:00:00 -0,2 -4,3 3,8 23 13 29 15 SSE 1020,2 0
17.01.2021 17:00:00 -0,1 -4,4 3,8 22 12 27 15 S 1019,9 0
17.01.2021 16:00:00 0,0 -4,7 3,9 22 12 26 14 S 1019,7 42
17.01.2021 15:00:00 0,3 -4,3 3,9 21 12 28 15 S 1019,2 60
17.01.2021 14:00:00 0,3 -4,3 4,0 24 13 29 16 S 1019,2 60
17.01.2021 13:00:00 0,2 -4,0 4,0 27 15 33 18 S 1019,2 60
17.01.2021 12:00:00 -0,6 -3,9 4,0 29 15 32 18 S 1019,4 60
17.01.2021 11:00:00 -1,1 -3,8 3,9 23 13 26 14 S 1019,3 23
17.01.2021 10:00:00 -1,3 -3,7 3,9 21 11 32 17 S 1018,6 0
17.01.2021 09:00:00 -1,1 -3,5 3,9 26 14 30 16 S 1018,1 0
17.01.2021 08:00:00 -1,0 -3,6 3,9 25 14 35 19 S 1017,6 0
17.01.2021 07:00:00 -0,7 -3,4 3,9 27 14 37 20 S 1017,4 0
17.01.2021 06:00:00 -0,5 -3,8 3,9 28 15 31 17 S 1017,0 0
17.01.2021 05:00:00 -0,6 -3,2 4,0 19 10 26 14 S 1017,2 0
17.01.2021 04:00:00 -0,5 -3,2 4,0 19 10 24 13 SSE 1017,4 0
17.01.2021 03:00:00 -0,7 -3,3 4,1 16 9 24 13 S 1017,6 0
17.01.2021 02:00:00 -1,2 -4,0 4,2 18 10 22 12 S 1017,7 0
17.01.2021 01:00:00 -0,7 -3,8 4,1 19 10 25 13 S 1017,9 0
17.01.2021 00:00:00 -0,4 -3,9 4,2 20 11 25 14 S 1018,3 0
16.01.2021 23:00:00 0,1 -3,8 4,2 22 12 26 14 SSW 1018,5 0
16.01.2021 22:00:00 0,1 -3,8 4,2 21 12 30 16 SSW 1018,9 0
16.01.2021 21:00:00 0,1 -3,6 4,2 25 14 32 17 SSW 1019,2 0
16.01.2021 20:00:00 -0,3 -4,4 4,2 24 13 35 19 S 1019,4 0
16.01.2021 19:00:00 0,0 -4,3 4,2 33 18 37 20 SSW 1019,7 0
16.01.2021 18:00:00 0,1 -4,3 4,2 23 13 27 15 S 1020,1 0
16.01.2021 17:00:00 0,4 -4,3 4,2 20 11 27 15 SSW 1020,6 0
16.01.2021 16:00:00 0,2 -4,7 4,3 16 9 25 13 SW 1021,4 18
16.01.2021 15:00:00 0,5 -5,0 4,3 21 12 27 15 WSW 1021,6 50
16.01.2021 14:00:00 0,7 -5,3 4,3 24 13 27 15 SW 1022,3 60
16.01.2021 13:00:00 0,9 -5,0 4,3 21 12 26 14 SW 1023,1 60
16.01.2021 12:00:00 0,7 -4,5 4,3 14 7 19 10 SW 1024,0 56
16.01.2021 11:00:00 -0,5 -4,4 4,3 12 7 23 12 W 1024,7 2
16.01.2021 10:00:00 -0,5 -4,7 4,3 19 11 26 14 W 1025,0 0
16.01.2021 09:00:00 -0,5 -4,9 4,3 21 11 29 16 WNW 1025,0 0
16.01.2021 08:00:00 -0,4 -4,0 4,2 21 11 31 17 NW 1025,1 0
16.01.2021 07:00:00 -0,4 -4,1 4,2 26 14 35 19 NW 1025,8 0
16.01.2021 06:00:00 -0,6 -4,6 4,2 28 15 38 20 NW 1026,2 0
16.01.2021 05:00:00 -0,6 -4,5 4,2 31 17 41 22 NW 1026,4 0
16.01.2021 04:00:00 -0,3 -4,2 4,3 36 20 44 24 NW 1026,4 0
16.01.2021 03:00:00 -0,1 -4,6 4,3 35 19 42 23 WNW 1027,0 0
16.01.2021 02:00:00 0,0 -5,2 4,3 37 20 43 23 WNW 1027,0 0
16.01.2021 01:00:00 0,6 -4,8 4,3 27 15 42 23 N 1027,4 0
16.01.2021 00:00:00 0,1 -5,6 4,3 33 18 45 24 NW 1027,8 0
15.01.2021 23:00:00 0,3 -5,3 4,3 34 18 44 24 NNW 1027,7 0
15.01.2021 22:00:00 0,4 -5,9 4,3 22 12 37 20 N 1027,8 0
15.01.2021 21:00:00 -0,1 -6,7 4,3 26 14 39 21 N 1028,1 0
15.01.2021 20:00:00 -0,4 -6,4 4,4 20 11 38 20 N 1028,2 0
15.01.2021 19:00:00 -0,5 -6,6 4,4 30 16 38 20 N 1028,0 0
15.01.2021 18:00:00 -0,4 -6,8 4,4 25 14 41 22 N 1028,0 0
15.01.2021 17:00:00 -0,1 -5,9 4,4 26 14 38 20 N 1027,6 0
15.01.2021 16:00:00 -0,4 -6,8 4,4 31 17 39 21 NNE 1027,6 0
15.01.2021 15:00:00 -0,6 -7,3 4,4 29 15 43 23 NNE 1027,5 0
15.01.2021 14:00:00 -0,9 -7,5 4,4 26 14 41 22 NNE 1027,3 0
15.01.2021 13:00:00 -1,3 -8,5 4,4 30 16 53 29 NNE 1027,2 0
15.01.2021 12:00:00 -0,9 -7,2 4,4 45 25 55 30 NE 1026,9 0
15.01.2021 11:00:00 -0,8 -6,1 4,4 43 23 50 27 NE 1026,7 0
15.01.2021 10:00:00 0,0 -6,6 4,4 30 16 44 24 NNE 1026,0 0
15.01.2021 09:00:00 -0,1 -7,0 4,4 38 20 46 25 NNE 1025,7 0
15.01.2021 08:00:00 0,1 -6,5 4,4 30 16 44 24 NNE 1025,2 0
15.01.2021 07:00:00 0,1 -5,5 4,4 37 20 46 25 NNE 1024,7 0
15.01.2021 06:00:00 0,3 -5,3 4,4 36 20 45 25 N 1024,3 0
15.01.2021 05:00:00 0,6 -4,9 4,4 34 18 43 23 N 1024,1 0
15.01.2021 04:00:00 0,6 -4,3 4,4 34 18 45 24 N 1024,1 0
15.01.2021 03:00:00 0,5 -4,0 4,4 30 16 51 27 NNE 1024,1 0
15.01.2021 02:00:00 0,6 -3,5 4,5 41 22 49 27 N 1023,7 0
15.01.2021 01:00:00 1,0 -2,6 4,5 41 22 49 26 NNE 1023,7 0
15.01.2021 00:00:00 1,6 -2,1 4,5 36 20 42 23 NNE 1023,8 0
14.01.2021 23:00:00 0,6 -0,3 4,5 25 14 33 18 NE 1023,7 0
14.01.2021 22:00:00 1,6 -2,0 4,5 19 10 30 16 NE 1023,5 0
14.01.2021 21:00:00 2,0 -3,0 4,5 22 12 35 19 ENE 1023,1 0
14.01.2021 20:00:00 2,0 -3,3 4,5 29 15 34 18 ENE 1022,7 0
14.01.2021 19:00:00 1,9 -2,8 4,5 31 17 38 21 ENE 1022,6 0
14.01.2021 18:00:00 2,1 -2,4 4,6 27 15 35 19 NE 1022,5 0
14.01.2021 17:00:00 2,3 -1,9 4,6 31 17 39 21 NE 1022,0 0
14.01.2021 16:00:00 2,4 -1,5 4,6 35 19 40 22 NE 1021,4 0
14.01.2021 15:00:00 2,2 -1,3 4,6 36 20 47 25 NNE 1020,8 0
14.01.2021 14:00:00 2,2 -1,7 4,6 34 18 41 22 NNE 1020,7 0
14.01.2021 13:00:00 2,2 -1,7 4,6 35 19 42 23 NNE 1020,7 0

tt = temperature
td = dewpoint
tw = water temperature
ff = wind speed
fx = gusts
dd = wind direction
ppp = reduced air pressure
sd = sunshine duration

Next stations